Main page
METAR-TAF:

METAR-TAF

Airports :

Tunis, Tunisia

Tunis–Carthage International Airport

latitude: 36-50N, longitude: 010-14E, elevation: 3 m

Current weather observation

The report was made 40 minutes ago, at 20:00 UTC
Calm wind
Temperature 23°C
Humidity 57%
Pressure 1019 hPa
Visibility 10 km or more
Few clouds at a height of 3300 ft

METAR: DTTA 232000Z 00000KT 9999 FEW033 23/14 Q1019 NOSIG

Time: 21:40 (20:40 UTC)

Forecast

The report was made 3 hours and 0 minutes ago, at 17:40 UTC
Forecast valid from 23 at 18 UTC to 24 at 18 UTC
Wind 6 kt from the Northeast
Visibility 10 km or more
no clouds below 1500 m and no cumulonimbus

TAF: DTTA 231740Z 2318/2418 04006KT CAVOK

Weather observations and forecasts of more than 4000 airports (METAR and TAF reports).

The available stations are represented by yellow and red dots on the map.

Hover mouse over dot to see the name of the station.

Then click to see weather observations and forecasts.

To change the map : click on the green buttons with a black cross to zoom in, on the green button with a dash to zoom out, or on the green arrows for adjacent maps.


METAR-TAF: